createdAt,value
2018-04-07T00:01:30.187Z,1.90
2018-04-07T00:03:59.075Z,2.00
2018-04-07T00:06:27.406Z,1.73
2018-04-07T00:08:55.837Z,2.00
2018-04-07T00:11:25.075Z,1.57
2018-04-07T00:13:54.085Z,1.73
2018-04-07T00:16:23.180Z,1.73
2018-04-07T00:18:51.783Z,1.67
2018-04-07T00:21:21.048Z,2.03
2018-04-07T00:23:49.379Z,2.03
2018-04-07T00:26:18.643Z,1.90
2018-04-07T00:28:47.456Z,2.13
2018-04-07T00:31:18.457Z,1.80
2018-04-07T00:33:47.246Z,2.20
2018-04-07T00:36:16.214Z,2.27
2018-04-07T00:38:45.327Z,2.00
2018-04-07T00:41:14.008Z,2.23
2018-04-07T00:43:44.023Z,2.20
2018-04-07T00:46:13.175Z,2.00
2018-04-07T00:48:42.434Z,2.40
2018-04-07T00:51:11.578Z,2.40
2018-04-07T00:53:40.724Z,2.37
2018-04-07T00:56:09.107Z,2.10
2018-04-07T00:58:38.691Z,2.40
2018-04-07T01:01:07.560Z,2.30
2018-04-07T01:03:36.640Z,2.50
2018-04-07T01:06:05.166Z,2.20
2018-04-07T01:08:34.202Z,2.23
2018-04-07T01:11:04.060Z,2.40
2018-04-07T01:13:34.182Z,2.20
2018-04-07T01:16:03.683Z,2.50
2018-04-07T01:18:32.065Z,2.50
2018-04-07T01:21:01.343Z,2.30
2018-04-07T01:23:30.082Z,2.17
2018-04-07T01:26:01.008Z,2.33
2018-04-07T01:28:31.278Z,2.00
2018-04-07T01:30:59.840Z,2.63
2018-04-07T01:33:28.810Z,2.80
2018-04-07T01:35:58.016Z,2.47
2018-04-07T01:38:27.248Z,2.27
2018-04-07T01:40:56.466Z,2.50
2018-04-07T01:43:24.864Z,2.50
2018-04-07T01:45:54.043Z,2.30
2018-04-07T01:48:23.526Z,2.50
2018-04-07T01:50:53.669Z,2.37
2018-04-07T01:53:22.928Z,2.60
2018-04-07T01:55:52.304Z,2.50
2018-04-07T01:58:21.288Z,2.93
2018-04-07T02:00:51.106Z,2.80
2018-04-07T02:03:20.476Z,2.57
2018-04-07T02:05:49.120Z,2.50
2018-04-07T02:08:18.648Z,2.73
2018-04-07T02:10:48.386Z,3.13
2018-04-07T02:13:17.648Z,3.00
2018-04-07T02:15:46.444Z,3.07
2018-04-07T02:18:14.755Z,2.67
2018-04-07T02:20:44.261Z,2.27
2018-04-07T02:23:15.010Z,2.83
2018-04-07T02:25:43.630Z,2.63
2018-04-07T02:28:12.987Z,2.93
2018-04-07T02:33:16.920Z,2.73
2018-04-07T02:35:45.896Z,2.87
2018-04-07T02:38:14.503Z,2.83
2018-04-07T02:40:44.688Z,3.03
2018-04-07T02:43:13.053Z,3.10
2018-04-07T02:45:42.457Z,3.30
2018-04-07T02:48:11.118Z,3.17
2018-04-07T02:50:39.897Z,2.80
2018-04-07T02:53:09.053Z,2.67
2018-04-07T02:55:37.948Z,3.10
2018-04-07T02:58:06.306Z,2.80
2018-04-07T03:00:36.527Z,3.00
2018-04-07T03:03:05.064Z,2.97
2018-04-07T03:05:34.831Z,3.03
2018-04-07T03:08:03.768Z,3.13
2018-04-07T03:10:33.368Z,3.07
2018-04-07T03:13:03.122Z,3.10
2018-04-07T03:15:33.200Z,3.40
2018-04-07T03:18:01.890Z,3.30
2018-04-07T03:20:31.125Z,3.20
2018-04-07T03:23:00.550Z,3.30
2018-04-07T03:25:29.498Z,3.57
2018-04-07T03:27:57.874Z,3.63
2018-04-07T03:30:26.261Z,3.17
2018-04-07T03:32:56.415Z,3.57
2018-04-07T03:35:25.667Z,3.20
2018-04-07T03:37:55.677Z,3.13
2018-04-07T03:40:25.080Z,3.50
2018-04-07T03:42:53.698Z,3.50
2018-04-07T03:45:24.640Z,3.43
2018-04-07T03:47:54.699Z,3.40
2018-04-07T03:50:23.422Z,3.50
2018-04-07T03:52:53.174Z,3.27
2018-04-07T03:55:22.324Z,3.50
2018-04-07T03:57:52.441Z,3.60
2018-04-07T04:00:21.695Z,3.00
2018-04-07T04:02:50.861Z,3.73
2018-04-07T04:05:19.320Z,3.63
2018-04-07T04:07:49.963Z,3.37
2018-04-07T04:10:19.117Z,3.40
2018-04-07T04:12:49.463Z,3.60
2018-04-07T04:15:17.855Z,3.83
2018-04-07T04:17:48.461Z,3.90
2018-04-07T04:20:16.841Z,3.60
2018-04-07T04:22:45.624Z,4.10
2018-04-07T04:25:15.645Z,3.27
2018-04-07T04:27:45.466Z,3.87
2018-04-07T04:30:14.148Z,3.40
2018-04-07T04:32:42.458Z,3.87
2018-04-07T04:35:10.902Z,3.50
2018-04-07T04:37:40.003Z,3.67
2018-04-07T04:40:09.135Z,3.80
2018-04-07T04:42:38.812Z,3.33
2018-04-07T04:45:09.280Z,4.07
2018-04-07T04:47:39.493Z,3.40
2018-04-07T04:50:08.643Z,3.70
2018-04-07T04:52:37.113Z,3.77
2018-04-07T04:55:05.638Z,3.60
2018-04-07T04:57:34.327Z,3.90
2018-04-07T05:00:03.085Z,3.80
2018-04-07T05:02:33.308Z,4.10
2018-04-07T05:05:02.402Z,3.90
2018-04-07T05:07:30.969Z,4.07
2018-04-07T05:09:59.934Z,3.93
2018-04-07T05:12:28.486Z,4.23
2018-04-07T05:14:57.763Z,4.33
2018-04-07T05:17:27.883Z,4.23
2018-04-07T05:19:57.651Z,3.80
2018-04-07T05:22:26.038Z,3.80
2018-04-07T05:24:54.356Z,4.87
2018-04-07T05:27:24.400Z,4.70
2018-04-07T05:29:53.680Z,4.87
2018-04-07T05:32:23.095Z,4.73
2018-04-07T05:34:52.242Z,4.77
2018-04-07T05:37:20.678Z,4.93
2018-04-07T05:39:49.129Z,5.30
2018-04-07T05:42:17.525Z,11.57
2018-04-07T05:44:47.729Z,6.70
2018-04-07T05:47:17.126Z,5.10
2018-04-07T05:49:47.344Z,4.50
2018-04-07T05:52:15.967Z,4.40
2018-04-07T05:54:45.829Z,5.67
2018-04-07T05:57:14.195Z,7.53
2018-04-07T05:59:42.793Z,13.23
2018-04-07T06:02:12.725Z,12.63
2018-04-07T06:04:41.184Z,11.90
2018-04-07T06:07:09.588Z,10.87
2018-04-07T06:09:39.693Z,10.10
2018-04-07T06:12:10.756Z,9.47
2018-04-07T06:14:40.132Z,9.03
2018-04-07T06:17:10.819Z,8.93
2018-04-07T06:19:39.454Z,7.97
2018-04-07T06:22:08.467Z,7.43
2018-04-07T06:24:37.112Z,7.43
2018-04-07T06:27:06.373Z,6.30
2018-04-07T06:29:36.509Z,5.47
2018-04-07T06:32:05.783Z,5.33
2018-04-07T06:34:35.960Z,6.13
2018-04-07T06:37:04.466Z,4.57
2018-04-07T06:39:33.253Z,4.90
2018-04-07T06:42:02.363Z,4.57
2018-04-07T06:44:30.915Z,4.60
2018-04-07T06:46:59.303Z,4.37
2018-04-07T06:49:30.246Z,3.60
2018-04-07T06:51:58.627Z,4.63
2018-04-07T06:54:26.990Z,4.37
2018-04-07T06:56:55.611Z,4.67
2018-04-07T06:59:25.817Z,4.90
2018-04-07T07:01:54.205Z,5.00
2018-04-07T07:04:23.531Z,4.03
2018-04-07T07:06:52.159Z,4.27
2018-04-07T07:09:21.437Z,4.03
2018-04-07T07:11:50.148Z,4.20
2018-04-07T07:14:19.469Z,4.40
2018-04-07T07:16:47.935Z,4.43
2018-04-07T07:19:16.730Z,4.43
2018-04-07T07:21:46.064Z,4.77
2018-04-07T07:24:15.372Z,4.20
2018-04-07T07:26:44.133Z,4.10
2018-04-07T07:29:12.547Z,4.40
2018-04-07T07:31:41.280Z,4.50
2018-04-07T07:34:10.048Z,4.20
2018-04-07T07:36:38.427Z,4.20
2018-04-07T07:39:07.003Z,4.37
2018-04-07T07:41:35.807Z,3.83
2018-04-07T07:44:06.228Z,4.70
2018-04-07T07:46:34.574Z,4.30
2018-04-07T07:49:03.744Z,5.13
2018-04-07T07:51:33.710Z,4.40
2018-04-07T07:54:02.038Z,4.83
2018-04-07T07:56:31.730Z,4.53
2018-04-07T07:59:00.915Z,5.00
2018-04-07T08:01:29.776Z,4.60
2018-04-07T08:03:59.982Z,4.87
2018-04-07T08:06:30.682Z,5.13
2018-04-07T08:09:01.158Z,4.90
2018-04-07T08:11:29.561Z,5.07
2018-04-07T08:13:58.828Z,5.13
2018-04-07T08:16:27.527Z,5.33
2018-04-07T08:18:56.719Z,5.27
2018-04-07T08:21:25.337Z,5.13
2018-04-07T08:23:54.029Z,5.20
2018-04-07T08:26:27.220Z,5.97
2018-04-07T08:28:55.668Z,5.20
2018-04-07T08:31:24.137Z,5.33
2018-04-07T08:33:58.179Z,5.40
2018-04-07T08:36:30.093Z,4.97
2018-04-07T08:38:59.279Z,5.60
2018-04-07T08:41:28.971Z,6.27
2018-04-07T08:43:58.250Z,5.87
2018-04-07T08:46:28.202Z,5.57
2018-04-07T08:48:57.262Z,5.57
2018-04-07T08:51:26.020Z,5.77
2018-04-07T08:53:54.429Z,5.17
2018-04-07T08:56:22.857Z,5.57
2018-04-07T08:58:52.173Z,5.43
2018-04-07T09:01:21.712Z,5.30
2018-04-07T09:03:52.001Z,5.60
2018-04-07T09:06:20.469Z,5.20
2018-04-07T09:08:50.015Z,5.23
2018-04-07T09:11:18.708Z,5.33
2018-04-07T09:13:48.330Z,5.00
2018-04-07T09:16:18.103Z,4.90
2018-04-07T09:18:48.857Z,5.20
2018-04-07T09:21:18.101Z,5.43
2018-04-07T09:23:47.239Z,5.50
2018-04-07T09:26:16.084Z,5.63
2018-04-07T09:28:46.567Z,5.37
2018-04-07T09:31:21.258Z,5.20
2018-04-07T09:33:50.000Z,5.33
2018-04-07T09:36:19.571Z,5.33
2018-04-07T09:38:48.585Z,5.63
2018-04-07T09:41:16.962Z,5.13
2018-04-07T09:43:46.827Z,5.13
2018-04-07T09:46:15.211Z,5.63
2018-04-07T09:48:44.137Z,5.17
2018-04-07T09:51:13.762Z,5.23
2018-04-07T09:53:42.157Z,5.90
2018-04-07T09:56:10.531Z,5.80
2018-04-07T09:58:38.880Z,5.60
2018-04-07T10:01:08.325Z,5.87
2018-04-07T10:03:40.404Z,6.07
2018-04-07T10:06:10.206Z,5.20
2018-04-07T10:08:38.612Z,5.47
2018-04-07T10:11:06.993Z,5.60
2018-04-07T10:13:35.760Z,6.00
2018-04-07T10:16:04.995Z,5.57
2018-04-07T10:18:35.285Z,5.80
2018-04-07T10:21:04.776Z,5.80
2018-04-07T10:23:34.946Z,5.77
2018-04-07T10:26:04.597Z,5.50
2018-04-07T10:28:33.954Z,5.77
2018-04-07T10:31:02.333Z,6.37
2018-04-07T10:33:31.517Z,6.23
2018-04-07T10:36:00.679Z,6.10
2018-04-07T10:38:29.440Z,5.73
2018-04-07T10:40:58.939Z,5.80
2018-04-07T10:43:27.302Z,5.80
2018-04-07T10:45:59.386Z,5.97
2018-04-07T10:48:31.793Z,5.87
2018-04-07T10:51:02.472Z,6.17
2018-04-07T10:53:32.859Z,5.57
2018-04-07T10:56:01.206Z,6.80
2018-04-07T10:58:31.241Z,5.90
2018-04-07T11:00:59.983Z,5.83
2018-04-07T11:03:29.432Z,6.07
2018-04-07T11:05:58.158Z,7.20
2018-04-07T11:08:28.604Z,6.70
2018-04-07T11:10:57.702Z,6.70
2018-04-07T11:13:27.674Z,6.47
2018-04-07T11:18:30.624Z,6.27
2018-04-07T11:21:00.207Z,8.30
2018-04-07T11:23:29.858Z,7.10
2018-04-07T11:25:58.445Z,6.67
2018-04-07T11:28:28.091Z,6.90
2018-04-07T11:30:59.054Z,6.57
2018-04-07T11:33:27.688Z,6.70
2018-04-07T11:35:59.808Z,6.90
2018-04-07T11:38:28.212Z,7.47
2018-04-07T11:40:56.600Z,6.67
2018-04-07T11:43:25.044Z,6.90
2018-04-07T11:45:53.873Z,7.37
2018-04-07T11:48:23.184Z,7.60
2018-04-07T11:50:52.436Z,7.50
2018-04-07T11:53:22.283Z,7.20
2018-04-07T11:55:50.696Z,6.33
2018-04-07T11:58:19.077Z,7.50
2018-04-07T12:00:47.773Z,7.03
2018-04-07T12:03:16.962Z,7.00
2018-04-07T12:05:45.343Z,7.63
2018-04-07T12:08:13.824Z,7.63
2018-04-07T12:10:42.199Z,8.10
2018-04-07T12:13:10.598Z,7.77
2018-04-07T12:15:39.018Z,7.23
2018-04-07T12:18:08.037Z,7.13
2018-04-07T12:20:36.358Z,8.17
2018-04-07T12:23:05.895Z,6.50
2018-04-07T12:25:35.057Z,7.43
2018-04-07T12:28:03.828Z,6.97
2018-04-07T12:30:33.059Z,6.80
2018-04-07T12:33:02.803Z,6.70
2018-04-07T12:35:32.150Z,7.87
2018-04-07T12:38:01.058Z,6.73
2018-04-07T12:40:30.575Z,13.10
2018-04-07T12:42:58.980Z,9.10
2018-04-07T12:45:28.635Z,6.77
2018-04-07T12:47:58.079Z,6.27
2018-04-07T12:50:26.689Z,6.77
2018-04-07T12:52:55.815Z,6.13
2018-04-07T12:55:26.083Z,6.00
2018-04-07T12:57:55.952Z,7.13
2018-04-07T13:00:25.819Z,6.50
2018-04-07T13:02:54.198Z,6.33
2018-04-07T13:05:23.735Z,8.30
2018-04-07T13:07:52.630Z,6.20
2018-04-07T13:10:21.811Z,6.03
2018-04-07T13:12:50.320Z,7.17
2018-04-07T13:15:18.693Z,7.07
2018-04-07T13:17:47.952Z,9.03
2018-04-07T13:20:16.275Z,5.73
2018-04-07T13:22:45.634Z,6.17
2018-04-07T13:25:14.301Z,7.13
2018-04-07T13:27:43.409Z,8.20
2018-04-07T13:30:12.028Z,6.10
2018-04-07T13:32:40.844Z,6.20
2018-04-07T13:35:11.535Z,5.97
2018-04-07T13:37:40.695Z,5.13
2018-04-07T13:40:09.909Z,5.50
2018-04-07T13:42:38.332Z,5.03
2018-04-07T13:45:06.689Z,5.30
2018-04-07T13:47:39.144Z,9.03
2018-04-07T13:50:09.061Z,6.80
2018-04-07T13:52:37.814Z,5.97
2018-04-07T13:55:06.369Z,5.70
2018-04-07T13:57:34.983Z,6.60
2018-04-07T14:00:04.200Z,5.77
2018-04-07T14:02:33.619Z,6.00
2018-04-07T14:05:03.003Z,5.37
2018-04-07T14:07:32.218Z,5.50
2018-04-07T14:10:04.879Z,6.00
2018-04-07T14:12:33.417Z,4.60
2018-04-07T14:15:02.525Z,5.93
2018-04-07T14:17:30.927Z,5.43
2018-04-07T14:20:00.841Z,6.00
2018-04-07T14:22:30.394Z,5.17
2018-04-07T14:25:00.353Z,4.87
2018-04-07T14:27:28.854Z,4.97
2018-04-07T14:29:57.288Z,5.57
2018-04-07T14:32:28.166Z,7.17
2018-04-07T14:34:57.506Z,5.80
2018-04-07T14:37:25.852Z,5.40
2018-04-07T14:39:58.272Z,5.50
2018-04-07T14:42:27.390Z,5.00
2018-04-07T14:44:56.656Z,5.33
2018-04-07T14:47:25.081Z,5.47
2018-04-07T14:49:53.466Z,5.83
2018-04-07T14:52:22.726Z,4.77
2018-04-07T14:54:51.085Z,4.73
2018-04-07T14:57:19.541Z,5.30
2018-04-07T14:59:47.941Z,5.47
2018-04-07T15:02:16.330Z,4.60
2018-04-07T15:04:44.714Z,3.97
2018-04-07T15:07:13.046Z,4.43
2018-04-07T15:09:41.396Z,4.67
2018-04-07T15:12:09.776Z,4.80
2018-04-07T15:14:39.136Z,4.20
2018-04-07T15:17:08.417Z,4.10
2018-04-07T15:19:37.604Z,3.90
2018-04-07T15:22:07.446Z,4.40
2018-04-07T15:24:36.854Z,3.57
2018-04-07T15:27:06.072Z,3.40
2018-04-07T15:29:34.841Z,3.63
2018-04-07T15:32:04.080Z,4.07
2018-04-07T15:34:33.336Z,3.97
2018-04-07T15:37:01.748Z,3.50
2018-04-07T15:39:30.350Z,4.27
2018-04-07T15:41:59.294Z,3.80
2018-04-07T15:44:28.074Z,4.00
2018-04-07T15:46:58.123Z,3.90
2018-04-07T15:49:26.539Z,4.33
2018-04-07T15:51:56.339Z,4.67
2018-04-07T15:54:25.485Z,4.60
2018-04-07T15:56:54.737Z,4.30
2018-04-07T15:59:25.920Z,3.50
2018-04-07T16:01:55.884Z,3.93
2018-04-07T16:04:24.607Z,3.80
2018-04-07T16:06:53.824Z,5.03
2018-04-07T16:09:22.629Z,3.70
2018-04-07T16:11:51.797Z,5.97
2018-04-07T16:14:21.008Z,4.30
2018-04-07T16:16:50.538Z,4.20
2018-04-07T16:19:19.397Z,3.80
2018-04-07T16:21:47.729Z,5.33
2018-04-07T16:24:16.092Z,5.57
2018-04-07T16:26:45.955Z,3.43
2018-04-07T16:29:17.413Z,2.97
2018-04-07T16:31:46.219Z,3.17
2018-04-07T16:34:14.662Z,3.00
2018-04-07T16:36:43.619Z,3.03
2018-04-07T16:39:12.007Z,2.97
2018-04-07T16:41:42.057Z,2.53
2018-04-07T16:44:10.455Z,3.17
2018-04-07T16:46:39.706Z,2.77
2018-04-07T16:49:08.775Z,2.67
2018-04-07T16:51:38.829Z,5.13
2018-04-07T16:54:08.299Z,3.33
2018-04-07T16:56:37.451Z,5.23
2018-04-07T16:59:07.167Z,5.00
2018-04-07T17:01:35.549Z,2.50
2018-04-07T17:04:04.843Z,5.90
2018-04-07T17:06:33.164Z,4.23
2018-04-07T17:09:02.852Z,5.30
2018-04-07T17:11:31.727Z,6.57
2018-04-07T17:14:01.029Z,4.87
2018-04-07T17:16:30.436Z,5.83
2018-04-07T17:18:58.822Z,5.63
2018-04-07T17:21:28.095Z,6.40
2018-04-07T17:23:56.488Z,5.37
2018-04-07T17:26:26.115Z,3.67
2018-04-07T17:28:54.514Z,4.47
2018-04-07T17:31:23.320Z,5.20
2018-04-07T17:33:51.802Z,5.57
2018-04-07T17:36:21.384Z,6.50
2018-04-07T17:38:51.277Z,4.27
2018-04-07T17:41:19.614Z,3.93
2018-04-07T17:43:48.007Z,15.63
2018-04-07T17:46:16.346Z,10.00
2018-04-07T17:48:44.763Z,7.00
2018-04-07T17:51:13.781Z,3.50
2018-04-07T17:53:42.585Z,6.00
2018-04-07T17:56:11.808Z,7.30
2018-04-07T17:58:41.202Z,4.93
2018-04-07T18:01:09.652Z,3.17
2018-04-07T18:03:39.532Z,2.50
2018-04-07T18:06:10.846Z,2.83
2018-04-07T18:08:39.992Z,3.00
2018-04-07T18:11:10.629Z,5.30
2018-04-07T18:13:39.002Z,3.20
2018-04-07T18:16:08.249Z,3.10
2018-04-07T18:18:36.594Z,3.10
2018-04-07T18:21:05.211Z,3.27
2018-04-07T18:23:35.452Z,3.43
2018-04-07T18:26:04.998Z,3.60
2018-04-07T18:28:33.852Z,4.33
2018-04-07T18:31:02.529Z,4.60
2018-04-07T18:33:31.583Z,5.33
2018-04-07T18:35:59.950Z,5.20
2018-04-07T18:38:28.325Z,4.23
2018-04-07T18:40:57.616Z,4.30
2018-04-07T18:43:26.268Z,5.00
2018-04-07T18:45:56.896Z,6.47
2018-04-07T18:48:25.324Z,5.13
2018-04-07T18:50:55.190Z,3.97
2018-04-07T18:53:24.729Z,3.50
2018-04-07T18:55:54.915Z,2.57
2018-04-07T18:58:23.272Z,2.33
2018-04-07T19:00:52.348Z,2.30
2018-04-07T19:03:20.737Z,2.07
2018-04-07T19:05:49.516Z,1.93
2018-04-07T19:08:19.943Z,2.13
2018-04-07T19:10:48.997Z,2.43
2018-04-07T19:13:18.599Z,2.53
2018-04-07T19:15:46.953Z,2.20
2018-04-07T19:18:16.938Z,2.37
2018-04-07T19:20:45.621Z,2.50
2018-04-07T19:23:14.719Z,2.13
2018-04-07T19:25:44.877Z,2.63
2018-04-07T19:28:13.335Z,2.60
2018-04-07T19:30:41.717Z,2.80
2018-04-07T19:33:10.708Z,3.07
2018-04-07T19:35:39.887Z,3.53
2018-04-07T19:38:08.956Z,2.90
2018-04-07T19:40:37.310Z,3.70
2018-04-07T19:43:06.685Z,3.33
2018-04-07T19:45:35.037Z,3.37
2018-04-07T19:48:04.206Z,3.13
2018-04-07T19:50:34.323Z,3.23
2018-04-07T19:53:03.391Z,3.07
2018-04-07T19:55:34.282Z,3.37
2018-04-07T19:58:03.672Z,3.10
2018-04-07T20:00:32.874Z,2.60
2018-04-07T20:03:01.290Z,2.80
2018-04-07T20:05:30.732Z,2.93
2018-04-07T20:07:59.100Z,2.90
2018-04-07T20:10:28.323Z,3.27
2018-04-07T20:12:56.709Z,3.23
2018-04-07T20:15:25.181Z,3.47
2018-04-07T20:17:54.400Z,4.10
2018-04-07T20:20:25.495Z,4.47
2018-04-07T20:22:54.488Z,3.40
2018-04-07T20:25:22.874Z,3.50
2018-04-07T20:27:52.130Z,3.30
2018-04-07T20:30:22.712Z,3.90
2018-04-07T20:32:53.404Z,4.83
2018-04-07T20:35:21.818Z,5.57
2018-04-07T20:37:51.711Z,4.87
2018-04-07T20:40:20.917Z,4.97
2018-04-07T20:42:50.475Z,4.37
2018-04-07T20:45:19.451Z,4.60
2018-04-07T20:47:48.420Z,4.70
2018-04-07T20:50:16.807Z,5.00
2018-04-07T20:52:45.276Z,6.67
2018-04-07T20:55:13.716Z,4.47
2018-04-07T20:57:42.632Z,3.73
2018-04-07T21:00:10.987Z,3.80
2018-04-07T21:02:40.822Z,3.60
2018-04-07T21:05:09.788Z,4.10
2018-04-07T21:07:38.892Z,4.27
2018-04-07T21:10:07.253Z,3.90
2018-04-07T21:12:35.591Z,3.90
2018-04-07T21:15:04.701Z,3.90
2018-04-07T21:17:34.645Z,4.30
2018-04-07T21:20:02.998Z,4.30
2018-04-07T21:22:32.717Z,5.67
2018-04-07T21:25:02.661Z,5.63
2018-04-07T21:27:31.055Z,5.93
2018-04-07T21:30:00.329Z,5.47
2018-04-07T21:32:29.608Z,4.83
2018-04-07T21:34:58.019Z,4.73
2018-04-07T21:37:26.778Z,4.60
2018-04-07T21:39:55.149Z,4.33
2018-04-07T21:42:23.518Z,4.30
2018-04-07T21:44:54.220Z,4.20
2018-04-07T21:47:23.397Z,4.00
2018-04-07T21:49:51.755Z,5.23
2018-04-07T21:52:21.447Z,4.80
2018-04-07T21:54:51.243Z,4.10
2018-04-07T21:57:20.771Z,3.80
2018-04-07T21:59:49.900Z,4.50
2018-04-07T22:02:18.462Z,4.63
2018-04-07T22:04:47.696Z,5.47
2018-04-07T22:07:18.180Z,5.10
2018-04-07T22:09:46.630Z,6.17
2018-04-07T22:12:16.014Z,6.30
2018-04-07T22:14:45.155Z,5.30
2018-04-07T22:17:14.643Z,5.53
2018-04-07T22:19:44.263Z,5.83
2018-04-07T22:22:13.639Z,5.93
2018-04-07T22:24:42.075Z,5.70
2018-04-07T22:27:10.860Z,6.37
2018-04-07T22:29:41.684Z,5.20
2018-04-07T22:32:10.837Z,5.87
2018-04-07T22:34:41.527Z,6.37
2018-04-07T22:37:09.859Z,5.93
2018-04-07T22:39:38.282Z,6.10
2018-04-07T22:42:07.292Z,5.30
2018-04-07T22:44:35.719Z,5.43
2018-04-07T22:47:06.264Z,4.80
2018-04-07T22:49:35.906Z,4.97
2018-04-07T22:52:05.495Z,5.07
2018-04-07T22:54:35.049Z,4.10
2018-04-07T22:57:03.460Z,3.97
2018-04-07T22:59:33.165Z,3.77
2018-04-07T23:02:03.251Z,12.83
2018-04-07T23:04:31.615Z,4.83
2018-04-07T23:06:59.942Z,5.23
2018-04-07T23:09:29.532Z,5.60
2018-04-07T23:11:57.910Z,6.33
2018-04-07T23:14:26.303Z,4.67
2018-04-07T23:16:55.484Z,4.70
2018-04-07T23:19:24.753Z,4.63
2018-04-07T23:21:53.900Z,4.73
2018-04-07T23:24:22.262Z,4.50
2018-04-07T23:26:50.648Z,4.23
2018-04-07T23:29:21.848Z,4.17
2018-04-07T23:31:50.840Z,4.73
2018-04-07T23:34:21.002Z,4.23
2018-04-07T23:36:49.451Z,4.63
2018-04-07T23:39:18.484Z,4.17
2018-04-07T23:41:48.018Z,15.87
2018-04-07T23:44:18.170Z,5.30
2018-04-07T23:46:46.742Z,4.37
2018-04-07T23:49:15.074Z,4.73
2018-04-07T23:51:44.818Z,4.47
2018-04-07T23:54:13.449Z,4.07
2018-04-07T23:56:42.191Z,4.23
2018-04-07T23:59:12.581Z,4.10
